sensor_id;sensor_type;location;lat;lon;timestamp;P1;durP1;ratioP1;P2;durP2;ratioP2
29432;SDS011;16405;53.964;13.448;2023-05-31T00:00:48;6.78;;;2.45;;
29432;SDS011;16405;53.964;13.448;2023-05-31T00:03:13;6.43;;;2.30;;
29432;SDS011;16405;53.964;13.448;2023-05-31T00:05:39;7.00;;;2.50;;
29432;SDS011;16405;53.964;13.448;2023-05-31T00:08:05;5.45;;;2.50;;
29432;SDS011;16405;53.964;13.448;2023-05-31T00:10:31;6.50;;;2.22;;
29432;SDS011;16405;53.964;13.448;2023-05-31T00:12:57;5.25;;;2.08;;
29432;SDS011;16405;53.964;13.448;2023-05-31T00:15:23;5.10;;;1.90;;
29432;SDS011;16405;53.964;13.448;2023-05-31T00:17:49;9.25;;;2.60;;
29432;SDS011;16405;53.964;13.448;2023-05-31T00:20:15;15.32;;;3.08;;
29432;SDS011;16405;53.964;13.448;2023-05-31T00:22:41;10.73;;;2.67;;
29432;SDS011;16405;53.964;13.448;2023-05-31T00:25:06;8.63;;;2.75;;
29432;SDS011;16405;53.964;13.448;2023-05-31T00:27:33;11.95;;;3.17;;
29432;SDS011;16405;53.964;13.448;2023-05-31T00:29:58;12.35;;;3.17;;
29432;SDS011;16405;53.964;13.448;2023-05-31T00:32:24;12.90;;;2.92;;
29432;SDS011;16405;53.964;13.448;2023-05-31T00:34:50;13.38;;;3.60;;
29432;SDS011;16405;53.964;13.448;2023-05-31T00:37:16;9.32;;;2.80;;
29432;SDS011;16405;53.964;13.448;2023-05-31T00:39:42;12.23;;;3.28;;
29432;SDS011;16405;53.964;13.448;2023-05-31T00:42:08;6.95;;;3.10;;
29432;SDS011;16405;53.964;13.448;2023-05-31T00:44:35;7.90;;;2.55;;
29432;SDS011;16405;53.964;13.448;2023-05-31T00:47:01;8.73;;;2.60;;
29432;SDS011;16405;53.964;13.448;2023-05-31T00:49:27;8.68;;;2.22;;
29432;SDS011;16405;53.964;13.448;2023-05-31T00:51:54;5.43;;;2.60;;
29432;SDS011;16405;53.964;13.448;2023-05-31T00:54:20;13.10;;;3.00;;
29432;SDS011;16405;53.964;13.448;2023-05-31T00:56:47;10.38;;;3.10;;
29432;SDS011;16405;53.964;13.448;2023-05-31T00:59:13;11.52;;;2.47;;
29432;SDS011;16405;53.964;13.448;2023-05-31T01:01:40;6.47;;;2.42;;
29432;SDS011;16405;53.964;13.448;2023-05-31T01:04:07;5.32;;;3.17;;
29432;SDS011;16405;53.964;13.448;2023-05-31T01:06:34;4.22;;;1.85;;
29432;SDS011;16405;53.964;13.448;2023-05-31T01:09:01;6.05;;;2.50;;
29432;SDS011;16405;53.964;13.448;2023-05-31T01:11:44;7.15;;;2.60;;
29432;SDS011;16405;53.964;13.448;2023-05-31T01:19:55;6.63;;;2.50;;
29432;SDS011;16405;53.964;13.448;2023-05-31T01:29:18;6.88;;;2.60;;
29432;SDS011;16405;53.964;13.448;2023-05-31T01:31:46;7.38;;;2.90;;
29432;SDS011;16405;53.964;13.448;2023-05-31T01:34:13;4.32;;;1.80;;
29432;SDS011;16405;53.964;13.448;2023-05-31T01:36:39;6.70;;;2.78;;
29432;SDS011;16405;53.964;13.448;2023-05-31T01:39:05;4.95;;;2.45;;
29432;SDS011;16405;53.964;13.448;2023-05-31T01:41:33;7.68;;;3.08;;
29432;SDS011;16405;53.964;13.448;2023-05-31T01:44:04;6.95;;;2.50;;
29432;SDS011;16405;53.964;13.448;2023-05-31T01:46:32;9.50;;;3.17;;
29432;SDS011;16405;53.964;13.448;2023-05-31T01:49:01;7.90;;;2.08;;
29432;SDS011;16405;53.964;13.448;2023-05-31T01:51:27;10.90;;;2.65;;
29432;SDS011;16405;53.964;13.448;2023-05-31T01:53:58;4.65;;;2.40;;
29432;SDS011;16405;53.964;13.448;2023-05-31T01:56:25;7.22;;;1.70;;
29432;SDS011;16405;53.964;13.448;2023-05-31T01:58:53;4.95;;;1.83;;
29432;SDS011;16405;53.964;13.448;2023-05-31T02:01:20;7.32;;;2.47;;
29432;SDS011;16405;53.964;13.448;2023-05-31T02:03:50;9.70;;;2.10;;
29432;SDS011;16405;53.964;13.448;2023-05-31T02:06:17;5.05;;;1.92;;
29432;SDS011;16405;53.964;13.448;2023-05-31T02:08:46;10.43;;;2.65;;
29432;SDS011;16405;53.964;13.448;2023-05-31T02:11:11;5.90;;;2.50;;
29432;SDS011;16405;53.964;13.448;2023-05-31T02:13:37;8.27;;;2.88;;
29432;SDS011;16405;53.964;13.448;2023-05-31T02:16:03;11.48;;;2.70;;
29432;SDS011;16405;53.964;13.448;2023-05-31T02:18:30;9.15;;;2.33;;
29432;SDS011;16405;53.964;13.448;2023-05-31T02:20:57;6.72;;;2.10;;
29432;SDS011;16405;53.964;13.448;2023-05-31T02:23:23;4.63;;;2.05;;
29432;SDS011;16405;53.964;13.448;2023-05-31T02:25:50;3.90;;;1.92;;
29432;SDS011;16405;53.964;13.448;2023-05-31T02:28:16;6.30;;;2.15;;
29432;SDS011;16405;53.964;13.448;2023-05-31T02:30:58;4.72;;;1.98;;
29432;SDS011;16405;53.964;13.448;2023-05-31T02:33:25;4.93;;;1.92;;
29432;SDS011;16405;53.964;13.448;2023-05-31T02:35:52;13.75;;;2.70;;
29432;SDS011;16405;53.964;13.448;2023-05-31T02:38:19;3.38;;;1.80;;
29432;SDS011;16405;53.964;13.448;2023-05-31T02:40:45;6.15;;;2.03;;
29432;SDS011;16405;53.964;13.448;2023-05-31T02:43:11;3.85;;;1.60;;
29432;SDS011;16405;53.964;13.448;2023-05-31T02:45:37;3.53;;;2.17;;
29432;SDS011;16405;53.964;13.448;2023-05-31T02:48:03;5.05;;;1.85;;
29432;SDS011;16405;53.964;13.448;2023-05-31T02:50:30;5.55;;;1.83;;
29432;SDS011;16405;53.964;13.448;2023-05-31T02:52:57;11.15;;;3.28;;
29432;SDS011;16405;53.964;13.448;2023-05-31T02:55:31;7.85;;;3.25;;
29432;SDS011;16405;53.964;13.448;2023-05-31T02:57:58;4.85;;;2.47;;
29432;SDS011;16405;53.964;13.448;2023-05-31T03:00:24;4.00;;;2.30;;
29432;SDS011;16405;53.964;13.448;2023-05-31T03:02:51;4.63;;;2.45;;
29432;SDS011;16405;53.964;13.448;2023-05-31T03:05:17;5.05;;;2.45;;
29432;SDS011;16405;53.964;13.448;2023-05-31T03:07:43;3.40;;;1.90;;
29432;SDS011;16405;53.964;13.448;2023-05-31T03:10:09;9.52;;;2.53;;
29432;SDS011;16405;53.964;13.448;2023-05-31T03:12:35;4.55;;;2.55;;
29432;SDS011;16405;53.964;13.448;2023-05-31T03:15:01;13.55;;;4.35;;
29432;SDS011;16405;53.964;13.448;2023-05-31T03:17:28;11.25;;;4.60;;
29432;SDS011;16405;53.964;13.448;2023-05-31T03:19:54;11.95;;;4.70;;
29432;SDS011;16405;53.964;13.448;2023-05-31T03:22:20;9.77;;;4.13;;
29432;SDS011;16405;53.964;13.448;2023-05-31T03:24:48;8.05;;;3.50;;
29432;SDS011;16405;53.964;13.448;2023-05-31T03:27:14;12.13;;;3.42;;
29432;SDS011;16405;53.964;13.448;2023-05-31T03:29:41;12.32;;;5.28;;
29432;SDS011;16405;53.964;13.448;2023-05-31T03:32:08;13.95;;;4.80;;
29432;SDS011;16405;53.964;13.448;2023-05-31T03:34:34;9.02;;;3.63;;
29432;SDS011;16405;53.964;13.448;2023-05-31T03:37:03;14.80;;;5.72;;
29432;SDS011;16405;53.964;13.448;2023-05-31T03:39:29;12.48;;;4.75;;
29432;SDS011;16405;53.964;13.448;2023-05-31T03:41:55;13.38;;;4.22;;
29432;SDS011;16405;53.964;13.448;2023-05-31T03:44:24;8.95;;;4.18;;
29432;SDS011;16405;53.964;13.448;2023-05-31T03:46:50;10.15;;;3.47;;
29432;SDS011;16405;53.964;13.448;2023-05-31T03:49:15;8.68;;;3.10;;
29432;SDS011;16405;53.964;13.448;2023-05-31T03:51:41;6.18;;;2.47;;
29432;SDS011;16405;53.964;13.448;2023-05-31T03:54:07;9.38;;;2.30;;
29432;SDS011;16405;53.964;13.448;2023-05-31T03:56:33;5.70;;;2.20;;
29432;SDS011;16405;53.964;13.448;2023-05-31T03:58:59;8.43;;;2.67;;
29432;SDS011;16405;53.964;13.448;2023-05-31T04:01:25;8.63;;;2.42;;
29432;SDS011;16405;53.964;13.448;2023-05-31T04:03:52;12.82;;;2.72;;
29432;SDS011;16405;53.964;13.448;2023-05-31T04:06:17;8.32;;;2.33;;
29432;SDS011;16405;53.964;13.448;2023-05-31T04:08:43;7.05;;;2.40;;
29432;SDS011;16405;53.964;13.448;2023-05-31T04:11:10;12.30;;;2.92;;
29432;SDS011;16405;53.964;13.448;2023-05-31T04:13:35;9.27;;;2.83;;
29432;SDS011;16405;53.964;13.448;2023-05-31T04:16:01;5.75;;;2.40;;
29432;SDS011;16405;53.964;13.448;2023-05-31T04:18:28;10.57;;;2.40;;
29432;SDS011;16405;53.964;13.448;2023-05-31T04:20:53;9.25;;;2.70;;
29432;SDS011;16405;53.964;13.448;2023-05-31T04:25:45;4.28;;;2.42;;
29432;SDS011;16405;53.964;13.448;2023-05-31T04:28:12;10.43;;;2.40;;
29432;SDS011;16405;53.964;13.448;2023-05-31T04:30:40;6.88;;;2.38;;
29432;SDS011;16405;53.964;13.448;2023-05-31T04:33:06;4.32;;;2.35;;
29432;SDS011;16405;53.964;13.448;2023-05-31T04:35:32;7.53;;;3.00;;
29432;SDS011;16405;53.964;13.448;2023-05-31T04:37:58;5.93;;;2.40;;
29432;SDS011;16405;53.964;13.448;2023-05-31T04:40:27;6.70;;;2.97;;
29432;SDS011;16405;53.964;13.448;2023-05-31T04:42:58;5.97;;;3.00;;
29432;SDS011;16405;53.964;13.448;2023-05-31T04:45:27;5.57;;;2.80;;
29432;SDS011;16405;53.964;13.448;2023-05-31T04:47:53;7.55;;;3.10;;
29432;SDS011;16405;53.964;13.448;2023-05-31T04:50:20;9.20;;;2.88;;
29432;SDS011;16405;53.964;13.448;2023-05-31T04:52:46;6.95;;;2.70;;
29432;SDS011;16405;53.964;13.448;2023-05-31T04:55:12;15.48;;;3.13;;
29432;SDS011;16405;53.964;13.448;2023-05-31T04:57:37;10.65;;;3.22;;
29432;SDS011;16405;53.964;13.448;2023-05-31T05:02:33;7.50;;;3.15;;
29432;SDS011;16405;53.964;13.448;2023-05-31T05:04:59;5.20;;;2.78;;
29432;SDS011;16405;53.964;13.448;2023-05-31T05:09:51;9.68;;;2.90;;
29432;SDS011;16405;53.964;13.448;2023-05-31T05:14:42;5.43;;;2.50;;
29432;SDS011;16405;53.964;13.448;2023-05-31T05:17:08;11.90;;;5.28;;
29432;SDS011;16405;53.964;13.448;2023-05-31T05:19:34;20.58;;;8.93;;
29432;SDS011;16405;53.964;13.448;2023-05-31T05:24:26;16.80;;;8.02;;
29432;SDS011;16405;53.964;13.448;2023-05-31T05:26:51;10.13;;;4.60;;
29432;SDS011;16405;53.964;13.448;2023-05-31T05:29:17;19.00;;;3.35;;
29432;SDS011;16405;53.964;13.448;2023-05-31T05:34:09;9.18;;;2.97;;
29432;SDS011;16405;53.964;13.448;2023-05-31T05:39:02;8.88;;;3.20;;
29432;SDS011;16405;53.964;13.448;2023-05-31T05:41:33;9.63;;;3.22;;
29432;SDS011;16405;53.964;13.448;2023-05-31T05:43:59;5.18;;;2.97;;
29432;SDS011;16405;53.964;13.448;2023-05-31T05:46:25;9.05;;;3.22;;
29432;SDS011;16405;53.964;13.448;2023-05-31T05:48:51;20.58;;;11.43;;
29432;SDS011;16405;53.964;13.448;2023-05-31T05:51:17;18.00;;;9.52;;
29432;SDS011;16405;53.964;13.448;2023-05-31T05:53:43;12.50;;;4.28;;
29432;SDS011;16405;53.964;13.448;2023-05-31T05:56:10;8.95;;;3.30;;
29432;SDS011;16405;53.964;13.448;2023-05-31T05:58:46;9.52;;;3.20;;
29432;SDS011;16405;53.964;13.448;2023-05-31T06:01:12;9.38;;;2.97;;
29432;SDS011;16405;53.964;13.448;2023-05-31T06:03:44;5.32;;;3.25;;
29432;SDS011;16405;53.964;13.448;2023-05-31T06:06:12;8.25;;;3.05;;
29432;SDS011;16405;53.964;13.448;2023-05-31T06:08:38;7.28;;;3.10;;
29432;SDS011;16405;53.964;13.448;2023-05-31T06:11:04;8.88;;;3.08;;
29432;SDS011;16405;53.964;13.448;2023-05-31T06:13:30;7.45;;;3.13;;
29432;SDS011;16405;53.964;13.448;2023-05-31T06:15:57;6.28;;;2.97;;
29432;SDS011;16405;53.964;13.448;2023-05-31T06:18:22;7.75;;;3.08;;
29432;SDS011;16405;53.964;13.448;2023-05-31T06:20:48;4.18;;;2.63;;
29432;SDS011;16405;53.964;13.448;2023-05-31T06:23:14;4.18;;;2.42;;
29432;SDS011;16405;53.964;13.448;2023-05-31T06:25:40;5.75;;;2.40;;
29432;SDS011;16405;53.964;13.448;2023-05-31T06:28:06;6.82;;;2.80;;
29432;SDS011;16405;53.964;13.448;2023-05-31T06:30:32;4.78;;;2.58;;
29432;SDS011;16405;53.964;13.448;2023-05-31T06:32:58;4.55;;;2.45;;
29432;SDS011;16405;53.964;13.448;2023-05-31T06:35:24;5.32;;;3.20;;
29432;SDS011;16405;53.964;13.448;2023-05-31T06:37:50;7.35;;;4.03;;
29432;SDS011;16405;53.964;13.448;2023-05-31T06:40:19;9.27;;;2.25;;
29432;SDS011;16405;53.964;13.448;2023-05-31T06:42:45;5.20;;;2.95;;
29432;SDS011;16405;53.964;13.448;2023-05-31T06:45:10;7.50;;;2.60;;
29432;SDS011;16405;53.964;13.448;2023-05-31T06:47:36;5.20;;;2.63;;
29432;SDS011;16405;53.964;13.448;2023-05-31T06:50:02;9.32;;;4.80;;
29432;SDS011;16405;53.964;13.448;2023-05-31T06:52:28;6.18;;;4.00;;
29432;SDS011;16405;53.964;13.448;2023-05-31T06:54:54;4.55;;;2.47;;
29432;SDS011;16405;53.964;13.448;2023-05-31T06:57:20;5.65;;;2.22;;
29432;SDS011;16405;53.964;13.448;2023-05-31T06:59:46;6.05;;;2.13;;
29432;SDS011;16405;53.964;13.448;2023-05-31T07:02:12;5.15;;;1.95;;
29432;SDS011;16405;53.964;13.448;2023-05-31T07:04:38;3.15;;;1.85;;
29432;SDS011;16405;53.964;13.448;2023-05-31T07:07:04;5.50;;;1.92;;
29432;SDS011;16405;53.964;13.448;2023-05-31T07:09:30;3.88;;;1.92;;
29432;SDS011;16405;53.964;13.448;2023-05-31T07:11:56;4.55;;;2.20;;
29432;SDS011;16405;53.964;13.448;2023-05-31T07:14:21;4.85;;;2.03;;
29432;SDS011;16405;53.964;13.448;2023-05-31T07:16:48;4.65;;;2.08;;
29432;SDS011;16405;53.964;13.448;2023-05-31T07:19:14;6.13;;;2.00;;
29432;SDS011;16405;53.964;13.448;2023-05-31T07:21:40;2.60;;;1.48;;
29432;SDS011;16405;53.964;13.448;2023-05-31T07:24:06;5.90;;;2.20;;
29432;SDS011;16405;53.964;13.448;2023-05-31T07:26:31;3.92;;;2.05;;
29432;SDS011;16405;53.964;13.448;2023-05-31T07:28:57;4.78;;;2.00;;
29432;SDS011;16405;53.964;13.448;2023-05-31T07:31:23;3.83;;;1.90;;
29432;SDS011;16405;53.964;13.448;2023-05-31T07:33:49;5.93;;;2.22;;
29432;SDS011;16405;53.964;13.448;2023-05-31T07:36:15;6.03;;;1.92;;
29432;SDS011;16405;53.964;13.448;2023-05-31T07:38:41;4.10;;;2.10;;
29432;SDS011;16405;53.964;13.448;2023-05-31T07:41:07;4.60;;;2.03;;
29432;SDS011;16405;53.964;13.448;2023-05-31T07:43:32;7.78;;;2.65;;
29432;SDS011;16405;53.964;13.448;2023-05-31T07:45:59;5.82;;;1.60;;
29432;SDS011;16405;53.964;13.448;2023-05-31T07:48:25;4.10;;;1.70;;
29432;SDS011;16405;53.964;13.448;2023-05-31T07:50:53;4.00;;;1.90;;
29432;SDS011;16405;53.964;13.448;2023-05-31T07:53:19;3.38;;;1.42;;
29432;SDS011;16405;53.964;13.448;2023-05-31T07:55:45;3.60;;;1.58;;
29432;SDS011;16405;53.964;13.448;2023-05-31T07:58:11;3.08;;;1.65;;
29432;SDS011;16405;53.964;13.448;2023-05-31T08:00:37;3.25;;;1.58;;
29432;SDS011;16405;53.964;13.448;2023-05-31T08:03:04;5.90;;;1.40;;
29432;SDS011;16405;53.964;13.448;2023-05-31T08:05:30;4.20;;;1.52;;
29432;SDS011;16405;53.964;13.448;2023-05-31T08:07:57;4.45;;;1.70;;
29432;SDS011;16405;53.964;13.448;2023-05-31T08:10:24;4.63;;;1.42;;
29432;SDS011;16405;53.964;13.448;2023-05-31T08:12:50;3.95;;;1.60;;
29432;SDS011;16405;53.964;13.448;2023-05-31T08:15:16;5.50;;;1.70;;
29432;SDS011;16405;53.964;13.448;2023-05-31T08:17:42;5.00;;;1.70;;
29432;SDS011;16405;53.964;13.448;2023-05-31T08:20:08;3.65;;;1.63;;
29432;SDS011;16405;53.964;13.448;2023-05-31T08:22:44;5.90;;;1.45;;
29432;SDS011;16405;53.964;13.448;2023-05-31T08:25:10;3.13;;;1.60;;
29432;SDS011;16405;53.964;13.448;2023-05-31T08:27:42;4.07;;;1.55;;
29432;SDS011;16405;53.964;13.448;2023-05-31T08:30:08;2.53;;;1.58;;
29432;SDS011;16405;53.964;13.448;2023-05-31T08:32:36;2.72;;;1.60;;
29432;SDS011;16405;53.964;13.448;2023-05-31T08:35:02;5.32;;;1.60;;
29432;SDS011;16405;53.964;13.448;2023-05-31T08:37:32;2.92;;;1.45;;
29432;SDS011;16405;53.964;13.448;2023-05-31T08:39:59;5.72;;;2.10;;
29432;SDS011;16405;53.964;13.448;2023-05-31T08:42:26;6.10;;;1.60;;
29432;SDS011;16405;53.964;13.448;2023-05-31T08:45:01;3.97;;;1.40;;
29432;SDS011;16405;53.964;13.448;2023-05-31T08:47:30;3.72;;;1.42;;
29432;SDS011;16405;53.964;13.448;2023-05-31T08:50:08;4.22;;;1.40;;
29432;SDS011;16405;53.964;13.448;2023-05-31T08:52:36;12.18;;;1.75;;
29432;SDS011;16405;53.964;13.448;2023-05-31T08:55:03;5.25;;;1.50;;
29432;SDS011;16405;53.964;13.448;2023-05-31T08:57:30;4.68;;;1.45;;
29432;SDS011;16405;53.964;13.448;2023-05-31T08:59:57;6.15;;;1.55;;
29432;SDS011;16405;53.964;13.448;2023-05-31T09:02:24;6.15;;;1.60;;
29432;SDS011;16405;53.964;13.448;2023-05-31T09:04:50;5.78;;;1.20;;
29432;SDS011;16405;53.964;13.448;2023-05-31T09:07:20;5.30;;;1.40;;
29432;SDS011;16405;53.964;13.448;2023-05-31T09:09:48;7.30;;;1.15;;
29432;SDS011;16405;53.964;13.448;2023-05-31T09:12:14;5.35;;;1.27;;
29432;SDS011;16405;53.964;13.448;2023-05-31T09:14:40;6.53;;;1.45;;
29432;SDS011;16405;53.964;13.448;2023-05-31T09:17:12;3.95;;;1.50;;
29432;SDS011;16405;53.964;13.448;2023-05-31T09:19:52;2.58;;;1.40;;
29432;SDS011;16405;53.964;13.448;2023-05-31T09:22:22;3.35;;;1.20;;
29432;SDS011;16405;53.964;13.448;2023-05-31T09:24:55;5.63;;;1.45;;
29432;SDS011;16405;53.964;13.448;2023-05-31T09:27:23;5.95;;;1.42;;
29432;SDS011;16405;53.964;13.448;2023-05-31T09:29:50;3.90;;;1.40;;
29432;SDS011;16405;53.964;13.448;2023-05-31T09:32:25;3.08;;;1.52;;
29432;SDS011;16405;53.964;13.448;2023-05-31T09:34:51;6.18;;;1.67;;
29432;SDS011;16405;53.964;13.448;2023-05-31T09:40:21;2.93;;;1.27;;
29432;SDS011;16405;53.964;13.448;2023-05-31T09:42:54;2.50;;;1.30;;
29432;SDS011;16405;53.964;13.448;2023-05-31T09:45:20;2.67;;;1.20;;
29432;SDS011;16405;53.964;13.448;2023-05-31T09:47:50;1.42;;;1.20;;
29432;SDS011;16405;53.964;13.448;2023-05-31T09:52:45;2.03;;;1.30;;
29432;SDS011;16405;53.964;13.448;2023-05-31T09:55:13;2.67;;;1.52;;
29432;SDS011;16405;53.964;13.448;2023-05-31T09:57:43;2.85;;;1.60;;
29432;SDS011;16405;53.964;13.448;2023-05-31T10:02:45;5.50;;;1.58;;
29432;SDS011;16405;53.964;13.448;2023-05-31T10:05:20;3.15;;;1.40;;
29432;SDS011;16405;53.964;13.448;2023-05-31T10:07:48;3.88;;;1.40;;
29432;SDS011;16405;53.964;13.448;2023-05-31T10:10:18;2.25;;;1.10;;
29432;SDS011;16405;53.964;13.448;2023-05-31T10:15:25;3.58;;;1.33;;
29432;SDS011;16405;53.964;13.448;2023-05-31T10:17:58;6.55;;;1.35;;
29432;SDS011;16405;53.964;13.448;2023-05-31T10:23:30;3.08;;;1.10;;
29432;SDS011;16405;53.964;13.448;2023-05-31T10:26:17;3.63;;;1.35;;
29432;SDS011;16405;53.964;13.448;2023-05-31T10:28:56;7.70;;;1.37;;
29432;SDS011;16405;53.964;13.448;2023-05-31T10:31:43;3.28;;;1.33;;
29432;SDS011;16405;53.964;13.448;2023-05-31T10:34:26;5.30;;;1.50;;
29432;SDS011;16405;53.964;13.448;2023-05-31T10:36:55;3.85;;;1.40;;
29432;SDS011;16405;53.964;13.448;2023-05-31T10:47:35;5.43;;;1.70;;
29432;SDS011;16405;53.964;13.448;2023-05-31T10:50:20;3.00;;;1.20;;
29432;SDS011;16405;53.964;13.448;2023-05-31T10:53:07;4.15;;;1.30;;
29432;SDS011;16405;53.964;13.448;2023-05-31T10:55:46;4.18;;;1.42;;
29432;SDS011;16405;53.964;13.448;2023-05-31T10:58:25;4.57;;;1.52;;
29432;SDS011;16405;53.964;13.448;2023-05-31T11:00:54;3.85;;;1.70;;
29432;SDS011;16405;53.964;13.448;2023-05-31T11:03:22;3.55;;;1.48;;
29432;SDS011;16405;53.964;13.448;2023-05-31T11:06:03;4.13;;;1.60;;
29432;SDS011;16405;53.964;13.448;2023-05-31T11:08:34;4.35;;;1.30;;
29432;SDS011;16405;53.964;13.448;2023-05-31T11:19:31;3.10;;;1.30;;
29432;SDS011;16405;53.964;13.448;2023-05-31T11:27:21;4.10;;;1.15;;
29432;SDS011;16405;53.964;13.448;2023-05-31T11:30:00;3.13;;;1.20;;
29432;SDS011;16405;53.964;13.448;2023-05-31T11:35:05;4.45;;;1.23;;
29432;SDS011;16405;53.964;13.448;2023-05-31T11:37:38;4.43;;;1.13;;
29432;SDS011;16405;53.964;13.448;2023-05-31T11:40:06;1.33;;;1.15;;
29432;SDS011;16405;53.964;13.448;2023-05-31T11:42:38;4.15;;;1.45;;
29432;SDS011;16405;53.964;13.448;2023-05-31T11:45:06;1.63;;;0.93;;
29432;SDS011;16405;53.964;13.448;2023-05-31T11:50:26;1.67;;;1.00;;
29432;SDS011;16405;53.964;13.448;2023-05-31T11:52:53;3.08;;;0.75;;
29432;SDS011;16405;53.964;13.448;2023-05-31T11:55:20;2.90;;;1.10;;
29432;SDS011;16405;53.964;13.448;2023-05-31T11:57:46;2.20;;;1.13;;
29432;SDS011;16405;53.964;13.448;2023-05-31T12:00:17;2.95;;;0.85;;
29432;SDS011;16405;53.964;13.448;2023-05-31T12:02:50;1.77;;;0.77;;
29432;SDS011;16405;53.964;13.448;2023-05-31T12:05:18;2.65;;;1.00;;
29432;SDS011;16405;53.964;13.448;2023-05-31T12:07:45;2.25;;;0.73;;
29432;SDS011;16405;53.964;13.448;2023-05-31T12:10:15;2.35;;;1.00;;
29432;SDS011;16405;53.964;13.448;2023-05-31T12:12:41;2.42;;;0.95;;
29432;SDS011;16405;53.964;13.448;2023-05-31T12:15:08;1.80;;;0.90;;
29432;SDS011;16405;53.964;13.448;2023-05-31T12:17:37;3.38;;;1.10;;
29432;SDS011;16405;53.964;13.448;2023-05-31T12:20:04;10.25;;;4.03;;
29432;SDS011;16405;53.964;13.448;2023-05-31T12:22:31;2.95;;;1.13;;
29432;SDS011;16405;53.964;13.448;2023-05-31T12:24:56;4.28;;;1.25;;
29432;SDS011;16405;53.964;13.448;2023-05-31T12:27:23;2.60;;;1.30;;
29432;SDS011;16405;53.964;13.448;2023-05-31T12:30:00;3.63;;;1.48;;
29432;SDS011;16405;53.964;13.448;2023-05-31T12:32:27;2.83;;;1.00;;
29432;SDS011;16405;53.964;13.448;2023-05-31T12:35:03;1.65;;;1.25;;
29432;SDS011;16405;53.964;13.448;2023-05-31T12:37:35;3.70;;;1.45;;
29432;SDS011;16405;53.964;13.448;2023-05-31T12:40:08;1.75;;;1.30;;
29432;SDS011;16405;53.964;13.448;2023-05-31T12:42:41;2.20;;;1.23;;
29432;SDS011;16405;53.964;13.448;2023-05-31T12:45:08;3.80;;;1.52;;
29432;SDS011;16405;53.964;13.448;2023-05-31T12:47:36;1.55;;;1.00;;
29432;SDS011;16405;53.964;13.448;2023-05-31T12:50:02;2.42;;;1.40;;
29432;SDS011;16405;53.964;13.448;2023-05-31T12:52:38;4.05;;;2.05;;
29432;SDS011;16405;53.964;13.448;2023-05-31T12:55:05;2.17;;;1.35;;
29432;SDS011;16405;53.964;13.448;2023-05-31T12:57:32;2.15;;;1.27;;
29432;SDS011;16405;53.964;13.448;2023-05-31T13:00:01;4.43;;;1.60;;
29432;SDS011;16405;53.964;13.448;2023-05-31T13:02:35;4.72;;;1.60;;
29432;SDS011;16405;53.964;13.448;2023-05-31T13:05:03;4.63;;;1.70;;
29432;SDS011;16405;53.964;13.448;2023-05-31T13:07:30;3.08;;;1.85;;
29432;SDS011;16405;53.964;13.448;2023-05-31T13:09:56;7.97;;;2.40;;
29432;SDS011;16405;53.964;13.448;2023-05-31T13:12:21;2.83;;;2.40;;
29432;SDS011;16405;53.964;13.448;2023-05-31T13:14:47;10.98;;;1.83;;
29432;SDS011;16405;53.964;13.448;2023-05-31T13:17:13;3.85;;;1.52;;
29432;SDS011;16405;53.964;13.448;2023-05-31T13:19:40;5.85;;;1.50;;
29432;SDS011;16405;53.964;13.448;2023-05-31T13:22:06;6.82;;;1.35;;
29432;SDS011;16405;53.964;13.448;2023-05-31T13:24:32;6.60;;;2.03;;
29432;SDS011;16405;53.964;13.448;2023-05-31T13:26:58;2.97;;;1.45;;
29432;SDS011;16405;53.964;13.448;2023-05-31T13:29:24;3.03;;;1.30;;
29432;SDS011;16405;53.964;13.448;2023-05-31T13:31:50;5.45;;;1.50;;
29432;SDS011;16405;53.964;13.448;2023-05-31T13:34:17;5.75;;;1.65;;
29432;SDS011;16405;53.964;13.448;2023-05-31T13:36:44;6.05;;;2.17;;
29432;SDS011;16405;53.964;13.448;2023-05-31T13:39:12;4.32;;;1.67;;
29432;SDS011;16405;53.964;13.448;2023-05-31T13:41:39;4.70;;;1.65;;
29432;SDS011;16405;53.964;13.448;2023-05-31T13:44:09;4.35;;;1.65;;
29432;SDS011;16405;53.964;13.448;2023-05-31T13:46:38;3.83;;;1.40;;
29432;SDS011;16405;53.964;13.448;2023-05-31T13:49:07;7.82;;;2.45;;
29432;SDS011;16405;53.964;13.448;2023-05-31T13:51:32;13.85;;;1.63;;
29432;SDS011;16405;53.964;13.448;2023-05-31T13:53:59;8.18;;;1.30;;
29432;SDS011;16405;53.964;13.448;2023-05-31T13:56:25;6.97;;;1.65;;
29432;SDS011;16405;53.964;13.448;2023-05-31T13:58:51;15.50;;;1.88;;
29432;SDS011;16405;53.964;13.448;2023-05-31T14:01:17;6.70;;;1.40;;
29432;SDS011;16405;53.964;13.448;2023-05-31T14:03:43;4.13;;;1.48;;
29432;SDS011;16405;53.964;13.448;2023-05-31T14:06:09;8.93;;;1.70;;
29432;SDS011;16405;53.964;13.448;2023-05-31T14:08:35;6.97;;;1.55;;
29432;SDS011;16405;53.964;13.448;2023-05-31T14:11:01;11.13;;;1.30;;
29432;SDS011;16405;53.964;13.448;2023-05-31T14:13:28;6.65;;;1.42;;
29432;SDS011;16405;53.964;13.448;2023-05-31T14:15:54;3.65;;;1.40;;
29432;SDS011;16405;53.964;13.448;2023-05-31T14:18:21;5.15;;;1.40;;
29432;SDS011;16405;53.964;13.448;2023-05-31T14:20:48;6.78;;;1.17;;
29432;SDS011;16405;53.964;13.448;2023-05-31T14:23:18;3.28;;;1.88;;
29432;SDS011;16405;53.964;13.448;2023-05-31T14:25:43;3.08;;;1.50;;
29432;SDS011;16405;53.964;13.448;2023-05-31T14:28:09;6.30;;;1.35;;
29432;SDS011;16405;53.964;13.448;2023-05-31T14:30:35;4.80;;;1.20;;
29432;SDS011;16405;53.964;13.448;2023-05-31T14:33:01;5.00;;;1.17;;
29432;SDS011;16405;53.964;13.448;2023-05-31T14:35:28;8.85;;;1.23;;
29432;SDS011;16405;53.964;13.448;2023-05-31T14:37:56;4.43;;;1.70;;
29432;SDS011;16405;53.964;13.448;2023-05-31T14:40:21;6.35;;;1.33;;
29432;SDS011;16405;53.964;13.448;2023-05-31T14:42:48;4.18;;;1.10;;
29432;SDS011;16405;53.964;13.448;2023-05-31T14:45:14;3.13;;;1.13;;
29432;SDS011;16405;53.964;13.448;2023-05-31T14:47:40;6.15;;;1.20;;
29432;SDS011;16405;53.964;13.448;2023-05-31T14:50:06;5.63;;;1.20;;
29432;SDS011;16405;53.964;13.448;2023-05-31T14:52:32;5.88;;;1.25;;
29432;SDS011;16405;53.964;13.448;2023-05-31T14:54:58;4.53;;;1.73;;
29432;SDS011;16405;53.964;13.448;2023-05-31T14:57:23;3.88;;;1.02;;
29432;SDS011;16405;53.964;13.448;2023-05-31T14:59:50;6.22;;;1.30;;
29432;SDS011;16405;53.964;13.448;2023-05-31T15:02:15;8.15;;;1.33;;
29432;SDS011;16405;53.964;13.448;2023-05-31T15:04:41;4.68;;;0.90;;
29432;SDS011;16405;53.964;13.448;2023-05-31T15:07:07;3.03;;;0.93;;
29432;SDS011;16405;53.964;13.448;2023-05-31T15:09:34;9.63;;;1.20;;
29432;SDS011;16405;53.964;13.448;2023-05-31T15:12:00;2.50;;;1.00;;
29432;SDS011;16405;53.964;13.448;2023-05-31T15:14:27;2.63;;;0.98;;
29432;SDS011;16405;53.964;13.448;2023-05-31T15:16:53;8.80;;;1.50;;
29432;SDS011;16405;53.964;13.448;2023-05-31T15:19:19;7.53;;;1.05;;
29432;SDS011;16405;53.964;13.448;2023-05-31T15:21:45;5.13;;;1.25;;
29432;SDS011;16405;53.964;13.448;2023-05-31T15:24:10;9.13;;;0.95;;
29432;SDS011;16405;53.964;13.448;2023-05-31T15:26:36;5.57;;;1.20;;
29432;SDS011;16405;53.964;13.448;2023-05-31T15:29:02;6.47;;;1.15;;
29432;SDS011;16405;53.964;13.448;2023-05-31T15:31:28;7.32;;;0.95;;
29432;SDS011;16405;53.964;13.448;2023-05-31T15:33:54;4.72;;;1.30;;
29432;SDS011;16405;53.964;13.448;2023-05-31T15:36:20;1.30;;;0.70;;
29432;SDS011;16405;53.964;13.448;2023-05-31T15:38:46;1.23;;;0.73;;
29432;SDS011;16405;53.964;13.448;2023-05-31T15:41:13;3.05;;;0.93;;
29432;SDS011;16405;53.964;13.448;2023-05-31T15:43:39;2.35;;;0.85;;
29432;SDS011;16405;53.964;13.448;2023-05-31T15:46:05;4.28;;;1.08;;